sensor_id;sensor_type;location;lat;lon;timestamp;P1;durP1;ratioP1;P2;durP2;ratioP2
59876;SDS011;45749;51.140;17.184;2023-08-12T00:00:00;7.10;;;4.22;;
59876;SDS011;45749;51.140;17.184;2023-08-12T00:02:36;5.03;;;4.05;;
59876;SDS011;45749;51.140;17.184;2023-08-12T00:05:02;5.38;;;3.80;;
59876;SDS011;45749;51.140;17.184;2023-08-12T00:07:28;5.25;;;4.00;;
59876;SDS011;45749;51.140;17.184;2023-08-12T00:09:54;4.85;;;4.05;;
59876;SDS011;45749;51.140;17.184;2023-08-12T00:12:21;5.45;;;3.92;;
59876;SDS011;45749;51.140;17.184;2023-08-12T00:14:46;6.65;;;4.57;;
59876;SDS011;45749;51.140;17.184;2023-08-12T00:17:11;5.85;;;4.20;;
59876;SDS011;45749;51.140;17.184;2023-08-12T00:19:37;5.45;;;4.13;;
59876;SDS011;45749;51.140;17.184;2023-08-12T00:22:02;5.20;;;4.25;;
59876;SDS011;45749;51.140;17.184;2023-08-12T00:24:29;7.00;;;4.97;;
59876;SDS011;45749;51.140;17.184;2023-08-12T00:26:54;7.50;;;4.40;;
59876;SDS011;45749;51.140;17.184;2023-08-12T00:29:20;6.15;;;5.07;;
59876;SDS011;45749;51.140;17.184;2023-08-12T00:31:46;8.98;;;6.13;;
59876;SDS011;45749;51.140;17.184;2023-08-12T00:34:11;6.25;;;4.75;;
59876;SDS011;45749;51.140;17.184;2023-08-12T00:36:36;8.10;;;4.63;;
59876;SDS011;45749;51.140;17.184;2023-08-12T00:39:02;6.97;;;5.82;;
59876;SDS011;45749;51.140;17.184;2023-08-12T00:41:28;9.35;;;5.43;;
59876;SDS011;45749;51.140;17.184;2023-08-12T00:43:54;7.50;;;5.50;;
59876;SDS011;45749;51.140;17.184;2023-08-12T00:46:19;7.18;;;5.03;;
59876;SDS011;45749;51.140;17.184;2023-08-12T00:48:45;7.38;;;5.18;;
59876;SDS011;45749;51.140;17.184;2023-08-12T00:51:10;9.57;;;5.88;;
59876;SDS011;45749;51.140;17.184;2023-08-12T00:53:35;7.15;;;5.10;;
59876;SDS011;45749;51.140;17.184;2023-08-12T00:56:01;9.57;;;5.10;;
59876;SDS011;45749;51.140;17.184;2023-08-12T00:58:27;10.55;;;5.43;;
59876;SDS011;45749;51.140;17.184;2023-08-12T01:00:52;8.68;;;5.53;;
59876;SDS011;45749;51.140;17.184;2023-08-12T01:03:18;9.75;;;5.18;;
59876;SDS011;45749;51.140;17.184;2023-08-12T01:05:44;8.35;;;5.60;;
59876;SDS011;45749;51.140;17.184;2023-08-12T01:08:11;8.63;;;6.28;;
59876;SDS011;45749;51.140;17.184;2023-08-12T01:10:37;7.90;;;4.90;;
59876;SDS011;45749;51.140;17.184;2023-08-12T01:15:44;11.55;;;5.82;;
59876;SDS011;45749;51.140;17.184;2023-08-12T01:18:15;8.88;;;5.97;;
59876;SDS011;45749;51.140;17.184;2023-08-12T01:20:41;8.18;;;5.20;;
59876;SDS011;45749;51.140;17.184;2023-08-12T01:25:32;6.50;;;5.45;;
59876;SDS011;45749;51.140;17.184;2023-08-12T01:27:57;8.68;;;5.75;;
59876;SDS011;45749;51.140;17.184;2023-08-12T01:30:23;10.43;;;5.65;;
59876;SDS011;45749;51.140;17.184;2023-08-12T01:38:03;7.05;;;4.68;;
59876;SDS011;45749;51.140;17.184;2023-08-12T01:40:32;6.75;;;5.65;;
59876;SDS011;45749;51.140;17.184;2023-08-12T01:42:58;7.78;;;5.72;;
59876;SDS011;45749;51.140;17.184;2023-08-12T01:45:24;10.95;;;5.63;;
59876;SDS011;45749;51.140;17.184;2023-08-12T01:47:49;6.55;;;5.22;;
59876;SDS011;45749;51.140;17.184;2023-08-12T01:50:16;7.57;;;4.88;;
59876;SDS011;45749;51.140;17.184;2023-08-12T01:52:41;7.43;;;5.40;;
59876;SDS011;45749;51.140;17.184;2023-08-12T01:55:07;7.22;;;5.80;;
59876;SDS011;45749;51.140;17.184;2023-08-12T01:57:32;8.55;;;6.13;;
59876;SDS011;45749;51.140;17.184;2023-08-12T01:59:58;7.78;;;4.63;;
59876;SDS011;45749;51.140;17.184;2023-08-12T02:02:23;7.72;;;5.63;;
59876;SDS011;45749;51.140;17.184;2023-08-12T02:04:48;7.63;;;5.03;;
59876;SDS011;45749;51.140;17.184;2023-08-12T02:07:14;8.20;;;5.65;;
59876;SDS011;45749;51.140;17.184;2023-08-12T02:09:39;6.55;;;5.05;;
59876;SDS011;45749;51.140;17.184;2023-08-12T02:12:04;6.30;;;4.53;;
59876;SDS011;45749;51.140;17.184;2023-08-12T02:14:30;7.00;;;5.40;;
59876;SDS011;45749;51.140;17.184;2023-08-12T02:16:55;7.32;;;5.93;;
59876;SDS011;45749;51.140;17.184;2023-08-12T02:19:20;6.18;;;5.03;;
59876;SDS011;45749;51.140;17.184;2023-08-12T02:21:46;6.70;;;5.50;;
59876;SDS011;45749;51.140;17.184;2023-08-12T02:24:11;7.07;;;4.77;;
59876;SDS011;45749;51.140;17.184;2023-08-12T02:26:37;7.22;;;4.90;;
59876;SDS011;45749;51.140;17.184;2023-08-12T02:29:03;7.90;;;5.85;;
59876;SDS011;45749;51.140;17.184;2023-08-12T02:31:28;7.30;;;5.55;;
59876;SDS011;45749;51.140;17.184;2023-08-12T02:33:54;7.30;;;5.60;;
59876;SDS011;45749;51.140;17.184;2023-08-12T02:36:19;8.38;;;5.18;;
59876;SDS011;45749;51.140;17.184;2023-08-12T02:38:44;7.65;;;5.70;;
59876;SDS011;45749;51.140;17.184;2023-08-12T02:41:10;9.48;;;5.68;;
59876;SDS011;45749;51.140;17.184;2023-08-12T02:43:35;7.13;;;5.00;;
59876;SDS011;45749;51.140;17.184;2023-08-12T02:46:00;6.95;;;4.90;;
59876;SDS011;45749;51.140;17.184;2023-08-12T02:48:26;7.70;;;5.93;;
59876;SDS011;45749;51.140;17.184;2023-08-12T02:50:51;7.28;;;5.18;;
59876;SDS011;45749;51.140;17.184;2023-08-12T02:53:16;7.72;;;5.15;;
59876;SDS011;45749;51.140;17.184;2023-08-12T02:55:42;7.03;;;5.38;;
59876;SDS011;45749;51.140;17.184;2023-08-12T02:58:07;6.07;;;5.47;;
59876;SDS011;45749;51.140;17.184;2023-08-12T03:00:32;7.53;;;5.60;;
59876;SDS011;45749;51.140;17.184;2023-08-12T03:02:58;5.72;;;5.03;;
59876;SDS011;45749;51.140;17.184;2023-08-12T03:05:23;10.85;;;5.25;;
59876;SDS011;45749;51.140;17.184;2023-08-12T03:07:49;6.43;;;5.25;;
59876;SDS011;45749;51.140;17.184;2023-08-12T03:10:17;9.73;;;5.85;;
59876;SDS011;45749;51.140;17.184;2023-08-12T03:12:42;7.85;;;5.25;;
59876;SDS011;45749;51.140;17.184;2023-08-12T03:15:08;7.43;;;5.40;;
59876;SDS011;45749;51.140;17.184;2023-08-12T03:17:34;5.70;;;5.05;;
59876;SDS011;45749;51.140;17.184;2023-08-12T03:19:59;8.70;;;5.65;;
59876;SDS011;45749;51.140;17.184;2023-08-12T03:22:27;12.13;;;5.85;;
59876;SDS011;45749;51.140;17.184;2023-08-12T03:24:53;6.63;;;5.13;;
59876;SDS011;45749;51.140;17.184;2023-08-12T03:27:18;7.22;;;5.43;;
59876;SDS011;45749;51.140;17.184;2023-08-12T03:29:43;5.35;;;4.78;;
59876;SDS011;45749;51.140;17.184;2023-08-12T03:32:09;5.70;;;4.30;;
59876;SDS011;45749;51.140;17.184;2023-08-12T03:34:34;7.43;;;4.97;;
59876;SDS011;45749;51.140;17.184;2023-08-12T03:36:59;7.57;;;5.60;;
59876;SDS011;45749;51.140;17.184;2023-08-12T03:39:24;8.80;;;5.80;;
59876;SDS011;45749;51.140;17.184;2023-08-12T03:41:50;8.80;;;5.45;;
59876;SDS011;45749;51.140;17.184;2023-08-12T03:44:15;6.50;;;5.45;;
59876;SDS011;45749;51.140;17.184;2023-08-12T03:46:41;5.50;;;4.90;;
59876;SDS011;45749;51.140;17.184;2023-08-12T03:49:06;7.40;;;4.75;;
59876;SDS011;45749;51.140;17.184;2023-08-12T03:51:31;8.65;;;5.32;;
59876;SDS011;45749;51.140;17.184;2023-08-12T03:53:57;5.95;;;5.13;;
59876;SDS011;45749;51.140;17.184;2023-08-12T03:56:23;6.47;;;5.35;;
59876;SDS011;45749;51.140;17.184;2023-08-12T03:58:48;5.35;;;4.55;;
59876;SDS011;45749;51.140;17.184;2023-08-12T04:01:13;6.47;;;5.30;;
59876;SDS011;45749;51.140;17.184;2023-08-12T04:03:39;11.02;;;5.30;;
59876;SDS011;45749;51.140;17.184;2023-08-12T04:06:04;6.00;;;5.07;;
59876;SDS011;45749;51.140;17.184;2023-08-12T04:08:29;5.07;;;4.40;;
59876;SDS011;45749;51.140;17.184;2023-08-12T04:10:57;9.27;;;5.05;;
59876;SDS011;45749;51.140;17.184;2023-08-12T04:13:22;9.10;;;4.97;;
59876;SDS011;45749;51.140;17.184;2023-08-12T04:15:48;5.97;;;4.85;;
59876;SDS011;45749;51.140;17.184;2023-08-12T04:18:18;6.68;;;5.43;;
59876;SDS011;45749;51.140;17.184;2023-08-12T04:20:44;6.85;;;4.75;;
59876;SDS011;45749;51.140;17.184;2023-08-12T04:23:10;6.45;;;4.85;;
59876;SDS011;45749;51.140;17.184;2023-08-12T04:25:36;5.80;;;4.13;;
59876;SDS011;45749;51.140;17.184;2023-08-12T04:28:01;8.07;;;5.65;;
59876;SDS011;45749;51.140;17.184;2023-08-12T04:30:26;5.53;;;4.75;;
59876;SDS011;45749;51.140;17.184;2023-08-12T04:32:52;6.03;;;5.30;;
59876;SDS011;45749;51.140;17.184;2023-08-12T04:35:17;6.35;;;5.13;;
59876;SDS011;45749;51.140;17.184;2023-08-12T04:37:42;6.07;;;4.97;;
59876;SDS011;45749;51.140;17.184;2023-08-12T04:40:08;9.10;;;5.53;;
59876;SDS011;45749;51.140;17.184;2023-08-12T04:42:33;7.22;;;4.78;;
59876;SDS011;45749;51.140;17.184;2023-08-12T04:44:59;7.45;;;5.35;;
59876;SDS011;45749;51.140;17.184;2023-08-12T04:47:28;7.43;;;5.75;;
59876;SDS011;45749;51.140;17.184;2023-08-12T04:49:54;6.95;;;4.45;;
59876;SDS011;45749;51.140;17.184;2023-08-12T04:52:19;10.32;;;6.30;;
59876;SDS011;45749;51.140;17.184;2023-08-12T04:54:45;5.40;;;4.63;;
59876;SDS011;45749;51.140;17.184;2023-08-12T04:57:11;6.70;;;6.00;;
59876;SDS011;45749;51.140;17.184;2023-08-12T04:59:36;7.30;;;4.95;;
59876;SDS011;45749;51.140;17.184;2023-08-12T05:02:02;6.13;;;4.95;;
59876;SDS011;45749;51.140;17.184;2023-08-12T05:04:27;10.27;;;7.07;;
59876;SDS011;45749;51.140;17.184;2023-08-12T05:06:52;7.28;;;5.03;;
59876;SDS011;45749;51.140;17.184;2023-08-12T05:09:18;5.18;;;4.68;;
59876;SDS011;45749;51.140;17.184;2023-08-12T05:11:43;5.93;;;5.20;;
59876;SDS011;45749;51.140;17.184;2023-08-12T05:14:08;7.05;;;4.80;;
59876;SDS011;45749;51.140;17.184;2023-08-12T05:16:34;6.78;;;4.88;;
59876;SDS011;45749;51.140;17.184;2023-08-12T05:18:59;9.27;;;5.68;;
59876;SDS011;45749;51.140;17.184;2023-08-12T05:21:24;5.90;;;5.20;;
59876;SDS011;45749;51.140;17.184;2023-08-12T05:23:50;9.27;;;6.07;;
59876;SDS011;45749;51.140;17.184;2023-08-12T05:26:15;5.90;;;5.28;;
59876;SDS011;45749;51.140;17.184;2023-08-12T05:28:40;6.78;;;5.47;;
59876;SDS011;45749;51.140;17.184;2023-08-12T05:31:07;6.45;;;5.10;;
59876;SDS011;45749;51.140;17.184;2023-08-12T05:33:33;6.72;;;5.05;;
59876;SDS011;45749;51.140;17.184;2023-08-12T05:35:58;6.15;;;5.28;;
59876;SDS011;45749;51.140;17.184;2023-08-12T05:38:23;6.45;;;5.53;;
59876;SDS011;45749;51.140;17.184;2023-08-12T05:40:48;8.20;;;5.50;;
59876;SDS011;45749;51.140;17.184;2023-08-12T05:43:14;8.07;;;5.57;;
59876;SDS011;45749;51.140;17.184;2023-08-12T05:45:39;5.97;;;5.38;;
59876;SDS011;45749;51.140;17.184;2023-08-12T05:48:04;5.43;;;4.93;;
59876;SDS011;45749;51.140;17.184;2023-08-12T05:50:30;9.43;;;5.78;;
59876;SDS011;45749;51.140;17.184;2023-08-12T05:52:55;6.82;;;5.00;;
59876;SDS011;45749;51.140;17.184;2023-08-12T05:55:20;9.60;;;5.32;;
59876;SDS011;45749;51.140;17.184;2023-08-12T05:57:46;8.35;;;4.75;;
59876;SDS011;45749;51.140;17.184;2023-08-12T06:00:11;6.15;;;5.55;;
59876;SDS011;45749;51.140;17.184;2023-08-12T06:02:37;5.32;;;4.55;;
59876;SDS011;45749;51.140;17.184;2023-08-12T06:05:03;5.78;;;4.72;;
59876;SDS011;45749;51.140;17.184;2023-08-12T06:07:29;7.78;;;5.07;;
59876;SDS011;45749;51.140;17.184;2023-08-12T06:09:54;8.90;;;5.20;;
59876;SDS011;45749;51.140;17.184;2023-08-12T06:12:19;7.97;;;5.32;;
59876;SDS011;45749;51.140;17.184;2023-08-12T06:14:44;7.82;;;5.07;;
59876;SDS011;45749;51.140;17.184;2023-08-12T06:17:10;5.13;;;4.60;;
59876;SDS011;45749;51.140;17.184;2023-08-12T06:19:35;7.63;;;4.80;;
59876;SDS011;45749;51.140;17.184;2023-08-12T06:22:00;8.13;;;5.55;;
59876;SDS011;45749;51.140;17.184;2023-08-12T06:24:26;7.93;;;5.72;;
59876;SDS011;45749;51.140;17.184;2023-08-12T06:26:51;5.50;;;4.35;;
59876;SDS011;45749;51.140;17.184;2023-08-12T06:29:16;6.75;;;4.80;;
59876;SDS011;45749;51.140;17.184;2023-08-12T06:31:41;6.05;;;5.00;;
59876;SDS011;45749;51.140;17.184;2023-08-12T06:34:07;6.22;;;5.22;;
59876;SDS011;45749;51.140;17.184;2023-08-12T06:36:32;7.38;;;5.53;;
59876;SDS011;45749;51.140;17.184;2023-08-12T06:38:58;6.90;;;5.20;;
59876;SDS011;45749;51.140;17.184;2023-08-12T06:41:23;5.60;;;4.35;;
59876;SDS011;45749;51.140;17.184;2023-08-12T06:43:48;6.45;;;4.20;;
59876;SDS011;45749;51.140;17.184;2023-08-12T06:46:14;5.17;;;4.33;;
59876;SDS011;45749;51.140;17.184;2023-08-12T06:48:39;6.30;;;5.00;;
59876;SDS011;45749;51.140;17.184;2023-08-12T06:51:04;5.95;;;4.50;;
59876;SDS011;45749;51.140;17.184;2023-08-12T06:53:35;5.82;;;4.20;;
59876;SDS011;45749;51.140;17.184;2023-08-12T06:56:01;6.78;;;4.32;;
59876;SDS011;45749;51.140;17.184;2023-08-12T06:58:26;6.32;;;4.60;;
59876;SDS011;45749;51.140;17.184;2023-08-12T07:00:52;3.90;;;3.40;;
59876;SDS011;45749;51.140;17.184;2023-08-12T07:03:18;6.07;;;3.58;;
59876;SDS011;45749;51.140;17.184;2023-08-12T07:05:43;6.53;;;4.47;;
59876;SDS011;45749;51.140;17.184;2023-08-12T07:08:09;8.65;;;3.75;;
59876;SDS011;45749;51.140;17.184;2023-08-12T07:10:34;5.63;;;3.70;;
59876;SDS011;45749;51.140;17.184;2023-08-12T07:13:03;4.47;;;3.35;;
59876;SDS011;45749;51.140;17.184;2023-08-12T07:15:28;4.28;;;3.42;;
59876;SDS011;45749;51.140;17.184;2023-08-12T07:17:54;7.93;;;4.83;;
59876;SDS011;45749;51.140;17.184;2023-08-12T07:20:19;8.25;;;3.97;;
59876;SDS011;45749;51.140;17.184;2023-08-12T07:22:44;5.85;;;2.90;;
59876;SDS011;45749;51.140;17.184;2023-08-12T07:25:10;4.43;;;3.25;;
59876;SDS011;45749;51.140;17.184;2023-08-12T07:27:35;5.10;;;2.72;;
59876;SDS011;45749;51.140;17.184;2023-08-12T07:30:00;6.07;;;3.00;;
59876;SDS011;45749;51.140;17.184;2023-08-12T07:32:25;3.57;;;3.00;;
59876;SDS011;45749;51.140;17.184;2023-08-12T07:34:51;4.82;;;2.97;;
59876;SDS011;45749;51.140;17.184;2023-08-12T07:37:16;4.83;;;2.83;;
59876;SDS011;45749;51.140;17.184;2023-08-12T07:39:41;5.93;;;3.00;;
59876;SDS011;45749;51.140;17.184;2023-08-12T07:42:07;3.43;;;3.13;;
59876;SDS011;45749;51.140;17.184;2023-08-12T07:44:32;5.78;;;2.65;;
59876;SDS011;45749;51.140;17.184;2023-08-12T07:46:57;10.85;;;3.15;;
59876;SDS011;45749;51.140;17.184;2023-08-12T07:49:22;4.15;;;2.90;;
59876;SDS011;45749;51.140;17.184;2023-08-12T07:51:48;3.70;;;2.80;;
59876;SDS011;45749;51.140;17.184;2023-08-12T07:54:13;3.97;;;2.70;;
59876;SDS011;45749;51.140;17.184;2023-08-12T07:56:38;3.90;;;2.85;;
59876;SDS011;45749;51.140;17.184;2023-08-12T07:59:04;4.85;;;2.88;;
59876;SDS011;45749;51.140;17.184;2023-08-12T08:01:29;4.43;;;2.72;;
59876;SDS011;45749;51.140;17.184;2023-08-12T08:03:54;6.82;;;2.70;;
59876;SDS011;45749;51.140;17.184;2023-08-12T08:06:20;6.68;;;2.35;;
59876;SDS011;45749;51.140;17.184;2023-08-12T08:08:46;5.18;;;2.30;;
59876;SDS011;45749;51.140;17.184;2023-08-12T08:11:12;4.30;;;2.63;;
59876;SDS011;45749;51.140;17.184;2023-08-12T08:13:37;7.90;;;2.80;;
59876;SDS011;45749;51.140;17.184;2023-08-12T08:16:02;5.77;;;3.10;;
59876;SDS011;45749;51.140;17.184;2023-08-12T08:18:28;4.00;;;2.63;;
59876;SDS011;45749;51.140;17.184;2023-08-12T08:20:53;4.07;;;2.40;;
59876;SDS011;45749;51.140;17.184;2023-08-12T08:23:18;4.47;;;2.72;;
59876;SDS011;45749;51.140;17.184;2023-08-12T08:25:44;4.47;;;2.00;;
59876;SDS011;45749;51.140;17.184;2023-08-12T08:28:09;6.57;;;2.60;;
59876;SDS011;45749;51.140;17.184;2023-08-12T08:30:34;3.50;;;2.65;;
59876;SDS011;45749;51.140;17.184;2023-08-12T08:33:01;3.08;;;2.15;;
59876;SDS011;45749;51.140;17.184;2023-08-12T08:35:26;3.80;;;2.00;;
59876;SDS011;45749;51.140;17.184;2023-08-12T08:37:53;5.10;;;3.15;;
59876;SDS011;45749;51.140;17.184;2023-08-12T08:40:18;3.70;;;2.55;;
59876;SDS011;45749;51.140;17.184;2023-08-12T08:42:43;5.60;;;2.35;;
59876;SDS011;45749;51.140;17.184;2023-08-12T08:47:41;4.18;;;2.65;;
59876;SDS011;45749;51.140;17.184;2023-08-12T08:50:08;4.90;;;2.50;;
59876;SDS011;45749;51.140;17.184;2023-08-12T08:52:34;3.63;;;2.40;;
59876;SDS011;45749;51.140;17.184;2023-08-12T08:55:02;5.18;;;2.30;;
59876;SDS011;45749;51.140;17.184;2023-08-12T08:57:29;3.33;;;2.08;;
59876;SDS011;45749;51.140;17.184;2023-08-12T08:59:55;2.85;;;1.92;;
59876;SDS011;45749;51.140;17.184;2023-08-12T09:02:20;3.85;;;2.38;;
59876;SDS011;45749;51.140;17.184;2023-08-12T09:04:46;4.18;;;2.50;;
59876;SDS011;45749;51.140;17.184;2023-08-12T09:07:12;3.55;;;2.50;;
59876;SDS011;45749;51.140;17.184;2023-08-12T09:09:42;4.20;;;2.17;;
59876;SDS011;45749;51.140;17.184;2023-08-12T09:12:13;5.43;;;2.97;;
59876;SDS011;45749;51.140;17.184;2023-08-12T09:14:40;2.63;;;2.00;;
59876;SDS011;45749;51.140;17.184;2023-08-12T09:17:06;3.00;;;2.10;;
59876;SDS011;45749;51.140;17.184;2023-08-12T09:19:31;4.07;;;2.33;;
59876;SDS011;45749;51.140;17.184;2023-08-12T09:21:57;3.58;;;1.98;;
59876;SDS011;45749;51.140;17.184;2023-08-12T09:24:23;3.38;;;2.20;;
59876;SDS011;45749;51.140;17.184;2023-08-12T09:26:53;3.70;;;2.25;;
59876;SDS011;45749;51.140;17.184;2023-08-12T09:29:22;3.70;;;1.85;;
59876;SDS011;45749;51.140;17.184;2023-08-12T09:31:48;3.45;;;2.17;;
59876;SDS011;45749;51.140;17.184;2023-08-12T09:34:13;2.90;;;1.85;;
59876;SDS011;45749;51.140;17.184;2023-08-12T09:36:39;3.40;;;1.90;;
59876;SDS011;45749;51.140;17.184;2023-08-12T09:39:05;3.25;;;1.98;;
59876;SDS011;45749;51.140;17.184;2023-08-12T09:41:33;3.47;;;1.83;;
59876;SDS011;45749;51.140;17.184;2023-08-12T09:43:59;4.05;;;1.63;;
59876;SDS011;45749;51.140;17.184;2023-08-12T09:46:26;3.97;;;2.20;;
59876;SDS011;45749;51.140;17.184;2023-08-12T09:48:53;3.22;;;1.67;;
59876;SDS011;45749;51.140;17.184;2023-08-12T09:51:18;2.75;;;1.85;;
59876;SDS011;45749;51.140;17.184;2023-08-12T09:53:47;2.45;;;2.03;;
59876;SDS011;45749;51.140;17.184;2023-08-12T09:56:13;3.42;;;1.60;;
59876;SDS011;45749;51.140;17.184;2023-08-12T09:58:47;2.97;;;2.03;;
59876;SDS011;45749;51.140;17.184;2023-08-12T10:01:14;3.33;;;1.42;;
59876;SDS011;45749;51.140;17.184;2023-08-12T10:03:43;3.90;;;2.15;;
59876;SDS011;45749;51.140;17.184;2023-08-12T10:06:13;3.22;;;1.67;;
59876;SDS011;45749;51.140;17.184;2023-08-12T10:08:39;3.90;;;1.77;;
59876;SDS011;45749;51.140;17.184;2023-08-12T10:11:05;2.92;;;1.88;;
59876;SDS011;45749;51.140;17.184;2023-08-12T10:13:31;2.15;;;1.77;;
59876;SDS011;45749;51.140;17.184;2023-08-12T10:15:57;3.85;;;1.80;;
59876;SDS011;45749;51.140;17.184;2023-08-12T10:18:22;2.40;;;1.77;;
59876;SDS011;45749;51.140;17.184;2023-08-12T10:20:49;2.13;;;1.48;;
59876;SDS011;45749;51.140;17.184;2023-08-12T10:23:16;2.85;;;2.03;;
59876;SDS011;45749;51.140;17.184;2023-08-12T10:25:43;4.38;;;1.95;;
59876;SDS011;45749;51.140;17.184;2023-08-12T10:28:09;2.60;;;2.10;;
59876;SDS011;45749;51.140;17.184;2023-08-12T10:30:36;4.63;;;2.42;;
59876;SDS011;45749;51.140;17.184;2023-08-12T10:33:01;4.20;;;2.38;;
59876;SDS011;45749;51.140;17.184;2023-08-12T10:38:20;2.50;;;1.88;;
59876;SDS011;45749;51.140;17.184;2023-08-12T10:40:46;2.65;;;1.73;;
59876;SDS011;45749;51.140;17.184;2023-08-12T10:43:14;4.22;;;1.98;;
59876;SDS011;45749;51.140;17.184;2023-08-12T10:45:51;6.90;;;2.20;;
59876;SDS011;45749;51.140;17.184;2023-08-12T10:48:18;3.67;;;1.85;;
59876;SDS011;45749;51.140;17.184;2023-08-12T10:50:48;3.33;;;2.63;;
59876;SDS011;45749;51.140;17.184;2023-08-12T10:53:26;2.42;;;1.92;;
59876;SDS011;45749;51.140;17.184;2023-08-12T10:56:00;1.90;;;1.70;;
59876;SDS011;45749;51.140;17.184;2023-08-12T10:58:29;2.70;;;1.60;;
59876;SDS011;45749;51.140;17.184;2023-08-12T11:03:25;3.53;;;2.03;;
59876;SDS011;45749;51.140;17.184;2023-08-12T11:05:50;3.35;;;2.10;;
59876;SDS011;45749;51.140;17.184;2023-08-12T11:08:23;4.40;;;2.10;;
59876;SDS011;45749;51.140;17.184;2023-08-12T11:10:49;2.53;;;1.58;;
59876;SDS011;45749;51.140;17.184;2023-08-12T11:13:15;3.53;;;1.85;;
59876;SDS011;45749;51.140;17.184;2023-08-12T11:15:41;2.63;;;1.70;;
59876;SDS011;45749;51.140;17.184;2023-08-12T11:18:13;7.40;;;2.03;;
59876;SDS011;45749;51.140;17.184;2023-08-12T11:20:41;4.53;;;2.60;;
59876;SDS011;45749;51.140;17.184;2023-08-12T11:23:07;4.65;;;1.70;;
59876;SDS011;45749;51.140;17.184;2023-08-12T11:25:34;2.10;;;0.98;;
59876;SDS011;45749;51.140;17.184;2023-08-12T11:28:00;3.30;;;1.92;;
59876;SDS011;45749;51.140;17.184;2023-08-12T11:30:27;3.80;;;1.38;;
59876;SDS011;45749;51.140;17.184;2023-08-12T11:32:53;2.53;;;1.40;;
59876;SDS011;45749;51.140;17.184;2023-08-12T11:35:22;2.08;;;1.48;;
59876;SDS011;45749;51.140;17.184;2023-08-12T11:37:50;3.58;;;1.50;;
59876;SDS011;45749;51.140;17.184;2023-08-12T11:40:23;2.13;;;1.50;;
59876;SDS011;45749;51.140;17.184;2023-08-12T11:42:51;3.15;;;1.60;;
59876;SDS011;45749;51.140;17.184;2023-08-12T11:45:21;3.70;;;1.70;;
59876;SDS011;45749;51.140;17.184;2023-08-12T11:47:48;4.80;;;1.73;;
59876;SDS011;45749;51.140;17.184;2023-08-12T11:50:17;2.60;;;1.40;;
59876;SDS011;45749;51.140;17.184;2023-08-12T11:52:44;3.97;;;1.45;;
59876;SDS011;45749;51.140;17.184;2023-08-12T11:55:09;3.53;;;1.58;;
59876;SDS011;45749;51.140;17.184;2023-08-12T11:57:35;1.42;;;1.10;;
59876;SDS011;45749;51.140;17.184;2023-08-12T12:00:01;2.47;;;1.05;;
59876;SDS011;45749;51.140;17.184;2023-08-12T12:02:30;2.00;;;1.60;;
59876;SDS011;45749;51.140;17.184;2023-08-12T12:04:55;1.70;;;1.27;;
59876;SDS011;45749;51.140;17.184;2023-08-12T12:07:21;3.85;;;1.58;;
59876;SDS011;45749;51.140;17.184;2023-08-12T12:09:50;5.05;;;1.70;;
59876;SDS011;45749;51.140;17.184;2023-08-12T12:12:25;2.72;;;1.80;;
59876;SDS011;45749;51.140;17.184;2023-08-12T12:14:51;3.08;;;1.67;;
59876;SDS011;45749;51.140;17.184;2023-08-12T12:17:18;5.10;;;1.65;;
59876;SDS011;45749;51.140;17.184;2023-08-12T12:19:46;4.28;;;1.67;;
59876;SDS011;45749;51.140;17.184;2023-08-12T12:22:11;2.85;;;1.40;;
59876;SDS011;45749;51.140;17.184;2023-08-12T12:24:46;2.75;;;1.58;;
59876;SDS011;45749;51.140;17.184;2023-08-12T12:27:13;3.53;;;1.45;;
59876;SDS011;45749;51.140;17.184;2023-08-12T12:29:38;3.70;;;1.95;;
59876;SDS011;45749;51.140;17.184;2023-08-12T12:32:04;3.22;;;1.83;;
59876;SDS011;45749;51.140;17.184;2023-08-12T12:34:29;2.47;;;1.60;;
59876;SDS011;45749;51.140;17.184;2023-08-12T12:36:55;3.25;;;1.25;;
59876;SDS011;45749;51.140;17.184;2023-08-12T12:39:20;2.83;;;1.52;;
59876;SDS011;45749;51.140;17.184;2023-08-12T12:41:47;2.22;;;1.20;;
59876;SDS011;45749;51.140;17.184;2023-08-12T12:44:13;2.58;;;1.23;;
59876;SDS011;45749;51.140;17.184;2023-08-12T12:46:38;3.27;;;1.40;;
59876;SDS011;45749;51.140;17.184;2023-08-12T12:49:04;4.10;;;1.57;;
59876;SDS011;45749;51.140;17.184;2023-08-12T12:51:29;1.50;;;1.30;;
59876;SDS011;45749;51.140;17.184;2023-08-12T12:53:54;4.00;;;1.20;;
59876;SDS011;45749;51.140;17.184;2023-08-12T12:56:19;2.17;;;1.50;;
59876;SDS011;45749;51.140;17.184;2023-08-12T12:58:45;2.03;;;1.07;;
59876;SDS011;45749;51.140;17.184;2023-08-12T13:01:10;6.43;;;2.33;;
59876;SDS011;45749;51.140;17.184;2023-08-12T13:03:36;3.45;;;1.15;;
59876;SDS011;45749;51.140;17.184;2023-08-12T13:06:01;1.60;;;1.20;;
59876;SDS011;45749;51.140;17.184;2023-08-12T13:08:28;1.20;;;1.05;;
59876;SDS011;45749;51.140;17.184;2023-08-12T13:10:53;2.13;;;1.20;;
59876;SDS011;45749;51.140;17.184;2023-08-12T13:13:19;3.15;;;1.25;;
59876;SDS011;45749;51.140;17.184;2023-08-12T13:15:44;4.43;;;1.73;;
59876;SDS011;45749;51.140;17.184;2023-08-12T13:18:11;3.45;;;1.55;;
59876;SDS011;45749;51.140;17.184;2023-08-12T13:20:36;1.45;;;1.15;;
59876;SDS011;45749;51.140;17.184;2023-08-12T13:23:02;2.55;;;1.17;;
59876;SDS011;45749;51.140;17.184;2023-08-12T13:25:29;4.55;;;1.10;;
59876;SDS011;45749;51.140;17.184;2023-08-12T13:27:58;1.25;;;1.13;;
59876;SDS011;45749;51.140;17.184;2023-08-12T13:30:24;2.78;;;1.17;;
59876;SDS011;45749;51.140;17.184;2023-08-12T13:32:49;6.28;;;1.60;;
59876;SDS011;45749;51.140;17.184;2023-08-12T13:35:16;2.35;;;1.30;;
59876;SDS011;45749;51.140;17.184;2023-08-12T13:37:42;8.52;;;1.48;;
59876;SDS011;45749;51.140;17.184;2023-08-12T13:40:07;2.60;;;1.57;;
59876;SDS011;45749;51.140;17.184;2023-08-12T13:42:34;1.90;;;1.30;;
59876;SDS011;45749;51.140;17.184;2023-08-12T13:44:59;3.13;;;1.53;;
59876;SDS011;45749;51.140;17.184;2023-08-12T13:47:24;2.63;;;1.30;;
59876;SDS011;45749;51.140;17.184;2023-08-12T13:49:49;2.73;;;1.50;;
59876;SDS011;45749;51.140;17.184;2023-08-12T13:52:15;3.50;;;1.40;;
59876;SDS011;45749;51.140;17.184;2023-08-12T13:54:40;1.70;;;1.30;;
59876;SDS011;45749;51.140;17.184;2023-08-12T13:57:05;1.93;;;1.40;;
59876;SDS011;45749;51.140;17.184;2023-08-12T13:59:30;2.00;;;1.27;;
59876;SDS011;45749;51.140;17.184;2023-08-12T14:01:56;1.67;;;1.40;;
59876;SDS011;45749;51.140;17.184;2023-08-12T14:04:21;1.93;;;1.07;;
59876;SDS011;45749;51.140;17.184;2023-08-12T14:06:46;4.13;;;1.17;;
59876;SDS011;45749;51.140;17.184;2023-08-12T14:09:12;1.20;;;1.10;;
59876;SDS011;45749;51.140;17.184;2023-08-12T14:11:39;4.45;;;1.70;;
59876;SDS011;45749;51.140;17.184;2023-08-12T14:14:04;2.70;;;1.83;;
59876;SDS011;45749;51.140;17.184;2023-08-12T14:16:30;1.67;;;1.47;;
59876;SDS011;45749;51.140;17.184;2023-08-12T14:18:55;3.80;;;1.20;;
59876;SDS011;45749;51.140;17.184;2023-08-12T14:21:20;4.97;;;1.50;;
59876;SDS011;45749;51.140;17.184;2023-08-12T14:23:46;2.63;;;1.65;;
59876;SDS011;45749;51.140;17.184;2023-08-12T14:26:11;3.97;;;1.70;;
59876;SDS011;45749;51.140;17.184;2023-08-12T14:28:36;1.73;;;1.33;;
59876;SDS011;45749;51.140;17.184;2023-08-12T14:31:01;5.07;;;1.47;;
59876;SDS011;45749;51.140;17.184;2023-08-12T14:33:27;2.78;;;1.20;;
59876;SDS011;45749;51.140;17.184;2023-08-12T14:35:54;2.08;;;1.30;;
59876;SDS011;45749;51.140;17.184;2023-08-12T14:38:22;4.80;;;1.10;;
59876;SDS011;45749;51.140;17.184;2023-08-12T14:40:48;1.45;;;1.20;;
59876;SDS011;45749;51.140;17.184;2023-08-12T14:43:14;2.35;;;1.30;;